Saint-Tite, Canada
Current Conditions -  °F | °C
As of 12:00 PM on Friday 19 Dec 2014 (Local Time) from CYRQ Reporting Station
Clear Clear  
Wind Chill: 16°   Ceiling: Unl
Heat Index: 23°   Visibility: 9mi
Dew Point: 14°   Wind: 6mph
Humidity: 68%   Direction: 310°NW
Pressure: 30.05"   Gusts: NA
Location:  46.72°N, 72.57°W
Report Text: CYRQ 191700Z AUTO 31005KT 260V360 9SM CLR M05/M10 A3005 RMK SLP179
Loading
Personal Weather Stations






























Interactive Weather Map New forecast layout! Learn more

10-Day Weather Forecast

Advertisements
Track Severe Weather on mobile